^^
Datos históricos de la estación: Murcia-Puente Tocinos
Diario Informe para Noviembre 15, 2019 Unidades:  Ingés    Métrico   Ambas
Diario Semanal Mensual Anual
  Máxima: Mínima: Promedio:
Temperatura: 58.8 °F 46.9 °F 53.4 °F
Punto de rocio: 40.6 °F 30.4 °F 35.2 °F
Humedad: 71% 34% 51%
Velocidad viento: 13mph 0mph 5.6mph
Racha viento: 23.5mph - -
Viento- - SO
Presión: 29.7 in 29.6 in -
Precipitación: 0 in    
 
 
Tabla de datos para Noviembre 15, 2019
Hora Temperatura Punto de rocio Presión Viento Velocidad viento Racha viento Humedad Intensidad lluvia(por hora) Nubes
00:04 54.3 °F 35.4 °F 29.6 in Sur 5.3 mph 11.5 mph 49% 0 in
00:09 54.3 °F 35.4 °F 29.6 in Sur 5.2 mph 12 mph 48.6% 0 in
00:14 54.5 °F 35.4 °F 29.6 in SSE 6.6 mph 13 mph 48.5% 0 in
00:19 54.1 °F 35.6 °F 29.6 in SSE 7.4 mph 13 mph 49.3% 0 in
00:24 54.1 °F 35.8 °F 29.6 in Sur 7.5 mph 14 mph 49.7% 0 in
00:29 54.1 °F 35.8 °F 29.6 in Sur 7.6 mph 14 mph 49.8% 0 in
00:34 54 °F 36 °F 29.6 in SSE 7.5 mph 13 mph 50.3% 0 in
00:39 54 °F 36.1 °F 29.6 in Sur 7.4 mph 12 mph 51% 0 in
00:44 54 °F 36.1 °F 29.6 in Sur 7.4 mph 11 mph 51% 0 in
00:49 54 °F 36.5 °F 29.6 in Sur 7.4 mph 13 mph 51.8% 0 in
00:54 53.8 °F 36.7 °F 29.6 in Sur 7.4 mph 13 mph 52% 0 in
00:59 53.6 °F 36.9 °F 29.6 in Sur 7.4 mph 13 mph 52.8% 0 in
01:04 53.6 °F 36.9 °F 29.6 in Sur 8.1 mph 15 mph 53% 0 in
01:09 54 °F 36.7 °F 29.6 in SSO 8.5 mph 15 mph 52.3% 0 in
01:14 54.1 °F 36.9 °F 29.6 in SSO 8.9 mph 14 mph 52% 0 in
01:19 54.1 °F 36.7 °F 29.6 in SSO 9.2 mph 15 mph 51.2% 0 in
01:24 54.5 °F 36.5 °F 29.6 in SSO 9.2 mph 18.1 mph 50.5% 0 in
01:29 54.7 °F 36.3 °F 29.6 in SSO 9.2 mph 18.4 mph 50% 0 in
01:34 54.9 °F 36.5 °F 29.6 in SSO 10.5 mph 18 mph 50% 0 in
01:39 54.9 °F 36.1 °F 29.6 in SSO 11.2 mph 16 mph 49.2% 0 in
01:44 54.9 °F 36 °F 29.6 in SSO 10.4 mph 16.1 mph 49% 0 in
01:49 55 °F 36.1 °F 29.6 in SSO 10 mph 18.4 mph 49% 0 in
01:54 55 °F 36.1 °F 29.6 in SSO 10 mph 18 mph 49% 0 in
01:59 55 °F 36.1 °F 29.6 in SSO 10 mph 21.9 mph 49% 0 in
02:04 54.9 °F 36 °F 29.6 in SSO 10.1 mph 22 mph 49% 0 in
02:09 54.9 °F 35.8 °F 29.6 in SO 10.2 mph 19.7 mph 48.5% 0 in
02:14 55 °F 35.6 °F 29.6 in SSO 9.1 mph 20 mph 48% 0 in
02:19 55 °F 35.8 °F 29.6 in SSO 8.5 mph 15 mph 48% 0 in
02:24 55 °F 35.8 °F 29.6 in SSO 7.5 mph 15.2 mph 48% 0 in
02:29 55 °F 35.6 °F 29.6 in Sur 6.9 mph 15 mph 48% 0 in
02:34 54.9 °F 35.8 °F 29.6 in Sur 7.2 mph 14 mph 48.5% 0 in
02:39 54.5 °F 35.8 °F 29.6 in SSO 7.4 mph 10 mph 49% 0 in
02:44 54.3 °F 35.8 °F 29.6 in SSO 6.2 mph 9.2 mph 49.5% 0 in
02:49 54.1 °F 36 °F 29.6 in SO 5.4 mph 11.4 mph 50% 0 in
02:54 54 °F 36.1 °F 29.6 in SSO 5.3 mph 12 mph 51% 0 in
02:59 54 °F 36.3 °F 29.6 in SSO 5.2 mph 10.4 mph 51.1% 0 in
03:04 54 °F 36.7 °F 29.6 in SSO 6 mph 10.4 mph 51.9% 0 in
03:09 53.8 °F 36.7 °F 29.6 in SSO 6.4 mph 11.2 mph 52% 0 in
03:14 54 °F 36.5 °F 29.6 in SSO 6.4 mph 12 mph 51.8% 0 in
03:19 54 °F 36.5 °F 29.6 in SSO 6.4 mph 10.7 mph 51.5% 0 in
03:24 54 °F 36.5 °F 29.6 in SO 6.4 mph 11 mph 51.6% 0 in
03:29 53.8 °F 36.7 °F 29.6 in OSO 6.4 mph 10 mph 52% 0 in
03:34 53.6 °F 36.9 °F 29.6 in NNO 5.1 mph 7 mph 52.9% 0 in
03:39 52.9 °F 37 °F 29.6 in NO 4.3 mph 5.8 mph 55% 0 in
03:44 52 °F 37.2 °F 29.6 in NO 3.5 mph 6 mph 57.1% 0 in
03:49 51.4 °F 37 °F 29.6 in ONO 3.1 mph 6 mph 58% 0 in
03:54 51.3 °F 37.2 °F 29.6 in NO 3 mph 5.2 mph 58.5% 0 in
03:59 51.3 °F 37.2 °F 29.6 in NNO 2.9 mph 5 mph 59% 0 in
04:04 50.9 °F 37.4 °F 29.6 in North 2.9 mph 5.4 mph 59.8% 0 in
04:09 50.5 °F 37.6 °F 29.6 in ESE 2.9 mph 6 mph 60.8% 0 in
04:14 50.4 °F 37.4 °F 29.6 in ESE 2.3 mph 6 mph 61% 0 in
04:19 50.4 °F 37.8 °F 29.6 in ESE 2 mph 4.6 mph 61.9% 0 in
04:24 50.2 °F 37.8 °F 29.6 in ESE 2 mph 5 mph 62.2% 0 in
04:29 50.2 °F 37.8 °F 29.6 in ESE 2 mph 5.2 mph 62% 0 in
04:34 50.4 °F 37.4 °F 29.6 in ESE 2.2 mph 5.2 mph 61.1% 0 in
04:39 50.5 °F 37.6 °F 29.6 in ESE 2.4 mph 5.8 mph 60.9% 0 in
04:44 50.7 °F 37.4 °F 29.6 in ESE 3.2 mph 6 mph 60.3% 0 in
04:49 50.7 °F 37.8 °F 29.6 in ESE 3.6 mph 5 mph 60.8% 0 in
04:54 50.5 °F 37.8 °F 29.6 in ESE 2.8 mph 5 mph 61% 0 in
04:59 50.4 °F 37.4 °F 29.6 in SE 2.4 mph 5 mph 61% 0 in
05:04 50.5 °F 37.6 °F 29.6 in SE 2.9 mph 5.2 mph 61.2% 0 in
05:09 50.7 °F 37.6 °F 29.6 in SSE 3.1 mph 5 mph 60.5% 0 in
05:14 50.7 °F 37.9 °F 29.6 in SSE 2.4 mph 3 mph 61.5% 0 in
05:19 50.5 °F 37.8 °F 29.6 in SSE 2 mph 4.6 mph 61.4% 0 in
05:24 50.5 °F 37.6 °F 29.6 in SSO 1.9 mph 6.9 mph 61.1% 0 in
05:29 50.5 °F 37.4 °F 29.6 in SO 1.8 mph 7 mph 60.4% 0 in
05:34 50.7 °F 37.8 °F 29.6 in OSO 3.2 mph 6 mph 61.1% 0 in
05:39 50.5 °F 38.1 °F 29.6 in Oeste 4 mph 6 mph 62.4% 0 in
05:44 50.2 °F 38.5 °F 29.6 in Oeste 3.3 mph 5 mph 64.1% 0 in
05:49 49.6 °F 38.7 °F 29.6 in ONO 2.9 mph 5.2 mph 65.6% 0 in
05:54 49.1 °F 38.5 °F 29.6 in NO 2.5 mph 5 mph 66.9% 0 in
05:59 48.6 °F 38.7 °F 29.6 in NO 2.4 mph 5.9 mph 68.4% 0 in
06:04 48.6 °F 38.7 °F 29.6 in ESE 2.7 mph 7.4 mph 68.8% 0 in
06:09 48.2 °F 38.3 °F 29.6 in ESE 2.9 mph 7 mph 68.4% 0 in
06:14 48 °F 38.5 °F 29.6 in SE 4.4 mph 7.6 mph 69.3% 0 in
06:19 48 °F 38.7 °F 29.6 in SE 5.2 mph 8.5 mph 70% 0 in
06:24 48 °F 38.7 °F 29.6 in Sur 4.9 mph 9 mph 70% 0 in
06:29 48.2 °F 38.8 °F 29.6 in Sur 4.7 mph 6 mph 69.8% 0 in
06:34 48.6 °F 38.8 °F 29.6 in SSE 3.2 mph 5.2 mph 69.1% 0 in
06:39 48.7 °F 39 °F 29.6 in SSE 2.4 mph 5.9 mph 69% 0 in
06:44 48.9 °F 38.8 °F 29.6 in SSE 2.9 mph 6 mph 68.3% 0 in
06:49 48.9 °F 38.8 °F 29.6 in SSE 3.1 mph 6 mph 68% 0 in
06:54 48.9 °F 39 °F 29.6 in Sur 2.4 mph 4.6 mph 68.6% 0 in
06:59 48.7 °F 39.2 °F 29.6 in NO 2 mph 5 mph 69.5% 0 in
07:04 48.7 °F 38.8 °F 29.6 in ONO 1.9 mph 5.9 mph 68.7% 0 in
07:09 48.9 °F 38.5 °F 29.6 in SSE 1.8 mph 6.2 mph 67.5% 0 in
07:14 49.3 °F 38.5 °F 29.6 in SSE 2.6 mph 6 mph 66.1% 0 in
07:19 49.5 °F 38.7 °F 29.6 in SSE 3.1 mph 3 mph 66% 0 in
07:24 49.6 °F 39 °F 29.6 in SSE 2 mph 3 mph 66.9% 0 in
07:29 49.6 °F 39 °F 29.6 in SSE 1.4 mph 3.5 mph 67% 0 in
07:34 49.5 °F 38.7 °F 29.6 in SSE 1.7 mph 4.7 mph 66.3% 0 in
07:39 49.5 °F 38.7 °F 29.6 in SSE 1.8 mph 5 mph 66.1% 0 in
07:44 49.6 °F 39 °F 29.6 in SSE 1.9 mph 3 mph 67% 0 in
07:49 49.5 °F 38.7 °F 29.6 in SSE 2 mph 3.6 mph 66.1% 0 in
07:54 49.5 °F 38.5 °F 29.6 in SSE 1.9 mph 5.2 mph 65.7% 0 in
07:59 49.5 °F 38.5 °F 29.6 in SSO 1.8 mph 5 mph 65.7% 0 in
08:04 49.6 °F 38.8 °F 29.6 in OSO 2.2 mph 5 mph 66.3% 0 in
08:09 49.5 °F 39 °F 29.6 in Oeste 2.4 mph 5 mph 67.5% 0 in
08:14 48.9 °F 39 °F 29.6 in Oeste 2.4 mph 5 mph 68.7% 0 in
08:19 48.6 °F 39.2 °F 29.6 in ONO 2.4 mph 5 mph 69.8% 0 in
08:24 48.6 °F 39.4 °F 29.6 in ONO 2.4 mph 4.6 mph 70.5% 0 in
08:29 48.4 °F 39.4 °F 29.6 in ONO 2.4 mph 5 mph 71% 0 in
08:34 48.6 °F 39.6 °F 29.6 in Oeste 2.4 mph 5 mph 71% 0 in
08:39 48.7 °F 39.4 °F 29.6 in Oeste 2.4 mph 5 mph 70.2% 0 in
08:44 49.1 °F 40.1 °F 29.6 in Oeste 0.9 mph   71% 0 in
08:49 50 °F 40.6 °F 29.6 in Calm   1.8 mph 70.4% 0 in
08:54 50.5 °F 40.5 °F 29.7 in Calm   4.7 mph 68.2% 0 in
08:59 51.1 °F 40.5 °F 29.7 in Calm   5 mph 67% 0 in
09:04 51.3 °F 40.6 °F 29.7 in SSE 0.9 mph 3.6 mph 66.8% 0 in
09:09 51.4 °F 40.5 °F 29.7 in SO 1.4 mph 4.6 mph 66.1% 0 in
09:14 51.6 °F 40.6 °F 29.7 in SO 1.8 mph 5 mph 66% 0 in
09:19 51.6 °F 40.3 °F 29.7 in OSO 2 mph 4.6 mph 65.2% 0 in
09:24 52 °F 40.6 °F 29.7 in OSO 2 mph 5 mph 65.1% 0 in
09:29 52.2 °F 39.4 °F 29.7 in Oeste 2 mph 4.7 mph 62% 0 in
09:34 52.3 °F 39 °F 29.7 in ONO 2 mph 5 mph 60.3% 0 in
09:39 52.5 °F 38.7 °F 29.7 in Oeste 2 mph 5 mph 59% 0 in
09:44 52.9 °F 38.3 °F 29.7 in SO 2 mph 5 mph 57.8% 0 in
09:49 53.1 °F 38.1 °F 29.7 in SO 2 mph 4.6 mph 57% 0 in
09:54 53.2 °F 38.1 °F 29.7 in OSO 2.2 mph 6.2 mph 56.5% 0 in
09:59 53.4 °F 38.1 °F 29.7 in Oeste 2.4 mph 6 mph 55.9% 0 in
10:04 53.6 °F 38.3 °F 29.7 in SO 3.2 mph 6.9 mph 56% 0 in
10:09 53.6 °F 38.3 °F 29.7 in OSO 3.6 mph 7 mph 55.9% 0 in
10:14 53.8 °F 38.3 °F 29.7 in OSO 3.2 mph 5.2 mph 56% 0 in
10:19 53.8 °F 38.3 °F 29.7 in OSO 2.9 mph 5.9 mph 55.9% 0 in
10:24 53.8 °F 37.8 °F 29.7 in OSO 2.9 mph 8.1 mph 54.6% 0 in
10:29 54 °F 37.6 °F 29.7 in OSO 2.9 mph 8.1 mph 54% 0 in
10:34 54.1 °F 37.8 °F 29.7 in OSO 4 mph 8 mph 54% 0 in
10:39 54.3 °F 37.8 °F 29.7 in OSO 4.7 mph 9.7 mph 53.4% 0 in
10:44 54.3 °F 37.4 °F 29.7 in Oeste 5 mph 10 mph 52.8% 0 in
10:49 54.5 °F 38.1 °F 29.7 in OSO 5.2 mph 9 mph 53.8% 0 in
10:54 54.9 °F 38.1 °F 29.7 in OSO 4.9 mph 8.1 mph 53.2% 0 in
10:59 54.9 °F 37.9 °F 29.7 in Oeste 4.7 mph 11.8 mph 52.8% 0 in
11:04 55 °F 37.8 °F 29.7 in Oeste 5 mph 12 mph 51.9% 0 in
11:09 55 °F 37.4 °F 29.7 in ONO 5.2 mph 12 mph 51.4% 0 in
11:14 55.4 °F 37.8 °F 29.7 in NO 5.8 mph 12 mph 51.3% 0 in
11:19 55.2 °F 38.1 °F 29.7 in NO 6.2 mph 12 mph 52.6% 0 in
11:24 55.2 °F 37.8 °F 29.7 in ONO 6.3 mph 12 mph 51.9% 0 in
11:29 55.6 °F 38.3 °F 29.7 in NO 6.4 mph 10.7 mph 52% 0 in
11:34 55.9 °F 38.1 °F 29.7 in ONO 6.1 mph 11 mph 51.2% 0 in
11:39 56.1 °F 37.2 °F 29.7 in Oeste 5.9 mph 18.4 mph 49.3% 0 in
11:44 56.1 °F 37 °F 29.7 in Oeste 7.6 mph 18.4 mph 48.9% 0 in
11:49 56.1 °F 36.9 °F 29.7 in Oeste 8.5 mph 18.5 mph 48.4% 0 in
11:54 56.1 °F 36.7 °F 29.7 in OSO 8.5 mph 19 mph 47.9% 0 in
11:59 56.5 °F 36.5 °F 29.7 in Oeste 8.5 mph 15.2 mph 47% 0 in
12:04 56.7 °F 36 °F 29.7 in OSO 9.3 mph 19.7 mph 45.9% 0 in
12:09 56.7 °F 36 °F 29.7 in Oeste 9.7 mph 20 mph 45.9% 0 in
12:14 56.8 °F 36 °F 29.7 in Oeste 9.1 mph 16.1 mph 45.4% 0 in
12:19 57.2 °F 35.4 °F 29.7 in OSO 8.7 mph 16.1 mph 44% 0 in
12:24 57.2 °F 35.4 °F 29.7 in OSO 8.7 mph 18.5 mph 43.8% 0 in
12:29 56.7 °F 35.2 °F 29.7 in Oeste 8.7 mph 19 mph 44.4% 0 in
12:34 56.5 °F 35.4 °F 29.7 in OSO 8.7 mph 17.3 mph 45% 0 in
12:39 56.7 °F 35.4 °F 29.7 in Oeste 8.7 mph 17 mph 44.9% 0 in
12:44 56.7 °F 35.4 °F 29.7 in Oeste 9.4 mph 17.3 mph 44.9% 0 in
12:49 56.7 °F 35.1 °F 29.7 in Oeste 9.7 mph 17.3 mph 44.2% 0 in
12:54 56.7 °F 34.5 °F 29.7 in OSO 9.4 mph 17.3 mph 43.5% 0 in
12:59 56.7 °F 34.7 °F 29.7 in Oeste 9.2 mph 18.4 mph 43.5% 0 in
13:04 57 °F 34 °F 29.7 in Oeste 9.6 mph 18 mph 41.7% 0 in
13:09 57.2 °F 34.5 °F 29.7 in OSO 9.7 mph 17 mph 42.2% 0 in
13:14 57.7 °F 34.2 °F 29.6 in Oeste 9.7 mph 21.9 mph 41% 0 in
13:19 57.7 °F 33.1 °F 29.6 in ONO 9.7 mph 22 mph 39.1% 0 in
13:24 57.7 °F 32.9 °F 29.6 in Oeste 10.8 mph 23.5 mph 39% 0 in
13:29 57.7 °F 32.4 °F 29.6 in Oeste 11.4 mph 23 mph 38.2% 0 in
13:34 57.7 °F 33.1 °F 29.6 in Oeste 12.4 mph 23.5 mph 39% 0 in
13:39 58.1 °F 32.9 °F 29.6 in Oeste 13 mph 23 mph 38.5% 0 in
13:44 58.1 °F 31.8 °F 29.6 in OSO 12.2 mph 22 mph 36.8% 0 in
13:49 58.3 °F 31.8 °F 29.6 in Oeste 11.8 mph 22 mph 36.6% 0 in
13:54 58.3 °F 32 °F 29.6 in Oeste 10.7 mph 17.3 mph 36.9% 0 in
13:59 58.5 °F 32.2 °F 29.6 in Oeste 10.2 mph 17.5 mph 37% 0 in
14:04 58.3 °F 32.2 °F 29.6 in Oeste 9.5 mph 19 mph 37% 0 in
14:09 58.5 °F 32.2 °F 29.6 in OSO 9.2 mph 19 mph 37% 0 in
14:14 58.5 °F 32 °F 29.6 in Oeste 9.7 mph 17.3 mph 36.8% 0 in
14:19 58.5 °F 32.4 °F 29.6 in Oeste 10 mph 17 mph 37% 0 in
14:24 58.6 °F 32.2 °F 29.6 in OSO 8.3 mph 18.5 mph 36.6% 0 in
14:29 58.6 °F 31.6 °F 29.6 in OSO 7.4 mph 20.7 mph 36% 0 in
14:34 58.5 °F 32.2 °F 29.6 in Oeste 9.1 mph 21 mph 36.8% 0 in
14:39 58.5 °F 32.4 °F 29.6 in ONO 10 mph 19 mph 37% 0 in
14:44 58.5 °F 32.5 °F 29.6 in Oeste 10.1 mph 19 mph 37.4% 0 in
14:49 58.5 °F 32.4 °F 29.6 in OSO 10.2 mph 18.4 mph 37.3% 0 in
14:54 58.5 °F 31.8 °F 29.6 in OSO 9.9 mph 18 mph 36.4% 0 in
14:59 58.6 °F 32 °F 29.6 in OSO 9.7 mph 17.8 mph 36.2% 0 in
15:04 58.8 °F 31.8 °F 29.6 in Oeste 9.3 mph 18.4 mph 35.9% 0 in
15:09 58.6 °F 31.1 °F 29.6 in Oeste 9.2 mph 18.4 mph 35% 0 in
15:14 58.5 °F 31.3 °F 29.6 in Oeste 8.8 mph 18 mph 35.4% 0 in
15:19 58.6 °F 31.5 °F 29.6 in Oeste 8.5 mph 17.5 mph 35.6% 0 in
15:24 58.6 °F 30.9 °F 29.6 in Oeste 8.6 mph 17 mph 35% 0 in
15:29 58.6 °F 30.9 °F 29.6 in Oeste 8.7 mph 16.3 mph 34.9% 0 in
15:34 58.6 °F 30.4 °F 29.6 in OSO 8.7 mph 16.8 mph 34.1% 0 in
15:39 58.6 °F 30.4 °F 29.6 in OSO 8.7 mph 17.3 mph 34% 0 in
15:44 58.6 °F 30.4 °F 29.6 in Oeste 9.3 mph 17.3 mph 34% 0 in
15:49 58.6 °F 31.3 °F 29.6 in Oeste 9.7 mph 17 mph 35.3% 0 in
15:54 58.6 °F 31.8 °F 29.6 in Oeste 8.6 mph 14 mph 36% 0 in
15:59 58.6 °F 31.5 °F 29.6 in Oeste 8.1 mph 13 mph 35.7% 0 in
16:04 58.6 °F 31.8 °F 29.6 in ONO 7 mph 13.8 mph 36.1% 0 in
16:09 58.5 °F 32 °F 29.6 in ONO 6.4 mph 20.7 mph 36.7% 0 in
16:14 58.1 °F 32 °F 29.6 in ONO 8.8 mph 21 mph 37.2% 0 in
16:19 58.1 °F 32.5 °F 29.6 in ONO 10 mph 19.2 mph 38% 0 in
16:24 57.9 °F 31.8 °F 29.6 in ONO 9.8 mph 20 mph 37.1% 0 in
16:29 57.7 °F 32.4 °F 29.6 in ONO 9.7 mph 17 mph 38% 0 in
16:34 57.7 °F 32.4 °F 29.6 in ONO 9.9 mph 16.3 mph 38% 0 in
16:39 57.6 °F 32.2 °F 29.6 in ONO 10 mph 17.3 mph 38% 0 in
16:44 57.6 °F 32 °F 29.6 in ONO 10.4 mph 17.3 mph 38% 0 in
16:49 57.4 °F 32.4 °F 29.6 in ONO 10.7 mph 17 mph 38.7% 0 in
16:54 57.4 °F 32.5 °F 29.6 in NO 10.4 mph 16.3 mph 39% 0 in
16:59 57 °F 32.4 °F 29.6 in ONO 10.2 mph 18.5 mph 39% 0 in
17:04 56.8 °F 32.2 °F 29.6 in ONO 10.6 mph 20.8 mph 39% 0 in
17:09 56.8 °F 32 °F 29.6 in ONO 10.7 mph 21 mph 39% 0 in
17:14 56.7 °F 32 °F 29.6 in ONO 9 mph 13.8 mph 39% 0 in
17:19 56.7 °F 32 °F 29.6 in ONO 8.1 mph 16.3 mph 39% 0 in
17:24 56.5 °F 31.8 °F 29.6 in ONO 8.8 mph 16 mph 39% 0 in
17:29 56.3 °F 32 °F 29.6 in ONO 9.2 mph 15 mph 39.5% 0 in
17:34 56.1 °F 32.4 °F 29.6 in ONO 8.5 mph 15 mph 40.3% 0 in
17:39 56.1 °F 32.7 °F 29.6 in ONO 8.1 mph 15.9 mph 41% 0 in
17:44 55.9 °F 32.5 °F 29.6 in Oeste 7 mph 16.3 mph 41% 0 in
17:49 55.8 °F 32.4 °F 29.6 in ONO 6.4 mph 16 mph 41% 0 in
17:54 55.6 °F 32.2 °F 29.6 in ONO 6.4 mph 15 mph 41% 0 in
17:59 55.2 °F 32.4 °F 29.6 in ONO 6.4 mph 15 mph 41.5% 0 in
18:04 55 °F 32.4 °F 29.6 in Oeste 6.3 mph 14 mph 42% 0 in
18:09 55 °F 32.2 °F 29.7 in ONO 6.2 mph 14 mph 42% 0 in
18:14 54.9 °F 32.5 °F 29.7 in Oeste 5.5 mph 10 mph 42.6% 0 in
18:19 54.7 °F 32.5 °F 29.7 in Oeste 5.2 mph 8.1 mph 43% 0 in
18:24 54.5 °F 32.4 °F 29.7 in Oeste 4.2 mph 8.1 mph 43% 0 in
18:29 54.3 °F 32.4 °F 29.7 in Oeste 3.6 mph 8.1 mph 43% 0 in
18:34 54.1 °F 32.7 °F 29.7 in Oeste 4.3 mph 9.2 mph 43.8% 0 in
18:39 54.1 °F 32.7 °F 29.7 in Oeste 4.7 mph 9 mph 44% 0 in
18:44 54 °F 32.5 °F 29.7 in Oeste 4.4 mph 9.2 mph 44% 0 in
18:49 54 °F 32.5 °F 29.7 in Oeste 4.3 mph 9 mph 44% 0 in
18:54 53.8 °F 32.5 °F 29.7 in OSO 4.6 mph 9 mph 44.3% 0 in
18:59 53.6 °F 32.9 °F 29.7 in Oeste 4.7 mph 8 mph 45% 0 in
19:04 53.4 °F 32.5 °F 29.7 in OSO 4.2 mph 7.4 mph 45% 0 in
19:09 53.4 °F 32.5 °F 29.7 in Oeste 4 mph 8.1 mph 45% 0 in
19:14 53.4 °F 32.5 °F 29.7 in OSO 4.2 mph 8.1 mph 45% 0 in
19:19 53.2 °F 32.5 °F 29.7 in OSO 4.3 mph 8.5 mph 45% 0 in
19:24 53.2 °F 32.5 °F 29.7 in OSO 3.9 mph 9 mph 45.3% 0 in
19:29 53.2 °F 32.9 °F 29.7 in OSO 3.6 mph 8 mph 45.9% 0 in
19:34 53.2 °F 33.1 °F 29.7 in OSO 3.2 mph 5.8 mph 46% 0 in
19:39 53.1 °F 32.9 °F 29.7 in OSO 2.9 mph 6 mph 46% 0 in
19:44 53.1 °F 32.7 °F 29.7 in Oeste 3 mph 6 mph 46% 0 in
19:49 52.9 °F 32.7 °F 29.7 in Oeste 3.1 mph 9.2 mph 46% 0 in
19:54 52.9 °F 32.9 °F 29.7 in SO 3.9 mph 9 mph 46.6% 0 in
19:59 52.7 °F 32.9 °F 29.7 in OSO 4.3 mph 6 mph 47% 0 in
20:04 52.5 °F 32.9 °F 29.7 in OSO 3 mph 5.9 mph 47% 0 in
20:09 52.5 °F 32.9 °F 29.7 in OSO 2.4 mph 6 mph 47% 0 in
20:14 52.5 °F 32.9 °F 29.7 in SO 2.7 mph 6.4 mph 47% 0 in
20:19 52.5 °F 32.9 °F 29.7 in SO 2.9 mph 8.5 mph 47% 0 in
20:24 52.7 °F 32.9 °F 29.7 in OSO 4 mph 9 mph 46.6% 0 in
20:29 52.9 °F 32.7 °F 29.7 in OSO 4.7 mph 9.2 mph 46.2% 0 in
20:34 52.7 °F 33.1 °F 29.7 in SSO 4.5 mph 9 mph 47% 0 in
20:39 52.7 °F 32.9 °F 29.7 in SSO 4.3 mph 6.2 mph 47% 0 in
20:44 52.5 °F 32.9 °F 29.7 in SO 3.4 mph 6 mph 47% 0 in
20:49 52.5 °F 32.9 °F 29.7 in OSO 2.9 mph 7.4 mph 47% 0 in
20:54 52.3 °F 32.9 °F 29.7 in OSO 3.4 mph 7 mph 47% 0 in
20:59 52.3 °F 32.9 °F 29.7 in OSO 3.6 mph 9.2 mph 47.6% 0 in
21:04 52.2 °F 33.3 °F 29.7 in SSE 3.2 mph 9 mph 48.4% 0 in
21:09 51.8 °F 33.8 °F 29.7 in SE 3.1 mph 6.2 mph 50.1% 0 in
21:14 51.1 °F 33.8 °F 29.7 in SE 3.4 mph 6.2 mph 51.5% 0 in
21:19 50.5 °F 33.6 °F 29.7 in SSE 3.6 mph 7.4 mph 52% 0 in
21:24 50.4 °F 33.4 °F 29.7 in Sur 4.3 mph 7 mph 52.3% 0 in
21:29 50.2 °F 33.3 °F 29.7 in Sur 4.7 mph 7 mph 52.2% 0 in
21:34 50.2 °F 33.3 °F 29.7 in Sur 5 mph 7.4 mph 52% 0 in
21:39 50.4 °F 33.3 °F 29.7 in Sur 5.2 mph 9.7 mph 52% 0 in
21:44 50.2 °F 33.3 °F 29.7 in Sur 5.8 mph 10 mph 52% 0 in
21:49 50.2 °F 33.3 °F 29.7 in Sur 6.2 mph 8.1 mph 52% 0 in
21:54 50.2 °F 33.3 °F 29.7 in Sur 5.5 mph 8 mph 52% 0 in
21:59 50.2 °F 33.1 °F 29.7 in SSO 5.2 mph 8.1 mph 51.7% 0 in
22:04 50.4 °F 32.7 °F 29.7 in Sur 5.3 mph 9.2 mph 51% 0 in
22:09 50.4 °F 32.9 °F 29.7 in SSO 5.4 mph 10.4 mph 51% 0 in
22:14 50.4 °F 32.9 °F 29.7 in SSO 5.9 mph 10 mph 51% 0 in
22:19 50.4 °F 32.9 °F 29.7 in SSO 6.2 mph 9.2 mph 51% 0 in
22:24 50.4 °F 32.7 °F 29.7 in Sur 6 mph 9 mph 51% 0 in
22:29 50.4 °F 32.9 °F 29.7 in SSO 5.9 mph 8 mph 51% 0 in
22:34 50.2 °F 32.7 °F 29.7 in SSO 5.2 mph 8 mph 51% 0 in
22:39 50.2 °F 32.7 °F 29.7 in SSO 4.7 mph 7 mph 50.9% 0 in
22:44 50.2 °F 32.7 °F 29.7 in SSO 4.2 mph 6.2 mph 50.9% 0 in
22:49 50.2 °F 32.7 °F 29.7 in SSO 4 mph 6 mph 51% 0 in
22:54 50.2 °F 32.7 °F 29.7 in SO 3.7 mph 6 mph 51% 0 in
22:59 49.8 °F 32.7 °F 29.7 in SO 3.6 mph 5 mph 51.4% 0 in
23:04 49.6 °F 33.3 °F 29.7 in ONO 2.5 mph 5 mph 53% 0 in
23:09 49.3 °F 33.3 °F 29.7 in ONO 2 mph 5 mph 54% 0 in
23:14 48.7 °F 33.4 °F 29.7 in NO 2 mph 5.9 mph 55.4% 0 in
23:19 48 °F 33.8 °F 29.7 in NO 2 mph 6 mph 57.3% 0 in
23:24 47.7 °F 33.8 °F 29.7 in NO 2.6 mph 5 mph 58.5% 0 in
23:29 47.1 °F 33.6 °F 29.7 in NO 2.9 mph 5 mph 59% 0 in
23:34 47.1 °F 33.6 °F 29.7 in NO 2.3 mph 5.2 mph 59.4% 0 in
23:39 46.9 °F 33.4 °F 29.7 in ONO 2 mph 5 mph 59.4% 0 in
23:44 46.9 °F 33.8 °F 29.7 in Oeste 2.2 mph 5 mph 59.9% 0 in
23:49 47.1 °F 33.8 °F 29.7 in ONO 2.4 mph 5 mph 60% 0 in
23:54 46.9 °F 33.8 °F 29.7 in ONO 2.1 mph 4 mph 60% 0 in
23:59 46.9 °F 33.8 °F 29.7 in Oeste 2 mph 5 mph 60% 0 in
Murcia-Puente Tocinos, España
Compliments of Weather Underground - 3 mb

La estación de MeteoMurcia.com, publica sus datos en los siguientes proyectos:

Weather Underground PWS IMURCIAP2 Meteoclimatic www.awekas.at

W3Counter
Web Analytics